Time;durP1;ratioP1;P1;durP2;ratioP2;P2;SDS_P1;SDS_P2;PMS_P1;PMS_P2;Temp;Humidity;BMP_temperature;BMP_pressure;BME280_temperature;BME280_humidity;BME280_pressure;Samples;Min_cycle;Max_cycle;Signal;HPM_P1;HPM_P2
2022/10/25 00:00:46;;;;;;;12.40;3.65;;;;;;;12.55;100.00;101084.91;5012173;28;20030;-86
2022/10/25 00:03:12;;;;;;;19.20;3.28;;;;;;;12.60;100.00;101083.69;5011038;28;20022;-86
2022/10/25 00:05:39;;;;;;;13.13;3.15;;;;;;;12.60;100.00;101088.97;5004911;28;20058;-87
2022/10/25 00:08:05;;;;;;;15.38;3.05;;;;;;;12.61;100.00;101085.38;5011378;28;20390;-87
2022/10/25 00:10:30;;;;;;;10.07;2.90;;;;;;;12.63;100.00;101094.00;4993477;28;20037;-86
2022/10/25 00:12:56;;;;;;;14.70;3.47;;;;;;;12.64;100.00;101098.31;5012099;28;20022;-86
2022/10/25 00:15:22;;;;;;;15.90;3.40;;;;;;;12.65;100.00;101094.72;5011347;28;20080;-86
2022/10/25 00:17:47;;;;;;;16.45;3.13;;;;;;;12.68;100.00;101102.41;5011878;28;20518;-86
2022/10/25 00:20:13;;;;;;;15.05;2.90;;;;;;;12.69;100.00;101099.63;5012664;28;20025;-85
2022/10/25 00:22:38;;;;;;;14.80;4.15;;;;;;;12.72;100.00;101098.56;5027001;28;20456;-86
2022/10/25 00:25:06;;;;;;;14.57;3.38;;;;;;;12.74;100.00;101101.91;5011385;28;20378;-86
2022/10/25 00:27:31;;;;;;;14.75;3.63;;;;;;;12.77;100.00;101097.22;5010306;28;20398;-86
2022/10/25 00:29:57;;;;;;;16.67;3.42;;;;;;;12.80;100.00;101102.25;5011514;28;20037;-85
2022/10/25 00:32:22;;;;;;;12.18;2.80;;;;;;;12.80;100.00;101098.78;5011747;28;20038;-86
2022/10/25 00:34:47;;;;;;;13.45;3.13;;;;;;;12.82;100.00;101110.09;5010196;28;20482;-86
2022/10/25 00:37:13;;;;;;;12.20;3.53;;;;;;;12.82;100.00;101105.66;5007743;28;20504;-86
2022/10/25 00:39:38;;;;;;;17.00;3.47;;;;;;;12.89;100.00;101106.00;5022851;28;20022;-85
2022/10/25 00:42:04;;;;;;;11.18;3.03;;;;;;;12.93;100.00;101106.59;5012279;28;20025;-85
2022/10/25 00:44:35;;;;;;;15.38;3.15;;;;;;;12.95;100.00;101115.22;5011796;28;20021;-87
2022/10/25 00:47:03;;;;;;;11.90;2.53;;;;;;;12.96;100.00;101101.91;5030095;28;20025;-85
2022/10/25 00:49:30;;;;;;;11.57;2.60;;;;;;;12.98;100.00;101109.72;5029816;28;20094;-85
2022/10/25 00:52:00;;;;;;;14.18;2.88;;;;;;;12.97;100.00;101106.22;5029281;28;20393;-85
2022/10/25 00:54:32;;;;;;;17.42;3.10;;;;;;;12.99;100.00;101111.38;5012459;28;20025;-85
2022/10/25 00:57:01;;;;;;;11.13;2.78;;;;;;;12.98;100.00;101099.97;5025186;28;20079;-85
2022/10/25 00:59:27;;;;;;;16.13;2.80;;;;;;;12.98;100.00;101107.06;5009594;28;20030;-85
2022/10/25 01:01:54;;;;;;;9.98;2.72;;;;;;;12.94;100.00;101116.19;4992847;28;20493;-85
2022/10/25 01:04:23;;;;;;;12.48;2.92;;;;;;;12.91;100.00;101112.00;4996530;28;20037;-85
2022/10/25 01:06:51;;;;;;;11.68;3.08;;;;;;;12.90;100.00;101109.47;5029094;28;20029;-85
2022/10/25 01:09:26;;;;;;;10.63;3.00;;;;;;;12.90;100.00;101114.75;5026433;28;20509;-85
2022/10/25 01:11:52;;;;;;;10.32;2.53;;;;;;;12.90;100.00;101112.13;5011719;28;20021;-84
2022/10/25 01:14:19;;;;;;;14.77;2.92;;;;;;;12.88;100.00;101117.53;5010606;28;20028;-84
2022/10/25 01:17:21;;;;;;;11.38;2.47;;;;;;;12.87;100.00;101118.50;5022920;28;20054;-84
2022/10/25 01:20:10;;;;;;;14.07;3.20;;;;;;;12.88;100.00;101117.53;4993127;28;20414;-85
2022/10/25 01:22:56;;;;;;;10.93;2.50;;;;;;;12.84;100.00;101124.84;5011021;28;20470;-84
2022/10/25 01:25:42;;;;;;;13.70;2.92;;;;;;;12.83;100.00;101132.91;5010992;28;20117;-84
2022/10/25 01:28:32;;;;;;;12.52;2.53;;;;;;;12.81;100.00;101132.19;5012612;28;20468;-84
2022/10/25 01:31:03;;;;;;;17.50;3.25;;;;;;;12.79;100.00;101136.72;5009844;28;20033;-84
2022/10/25 01:33:31;;;;;;;10.80;2.42;;;;;;;12.79;100.00;101134.91;5012218;28;20123;-85
2022/10/25 01:36:18;;;;;;;15.80;3.10;;;;;;;12.82;100.00;101132.06;5030769;28;20021;-86
2022/10/25 01:38:56;;;;;;;11.35;2.60;;;;;;;12.83;100.00;101138.19;5012626;28;20032;-86
2022/10/25 01:41:31;;;;;;;25.95;3.22;;;;;;;12.83;100.00;101143.47;5011594;28;20071;-84
2022/10/25 01:43:59;;;;;;;10.80;2.72;;;;;;;12.81;100.00;101130.38;5030067;28;20028;-87
2022/10/25 01:46:35;;;;;;;10.85;2.60;;;;;;;12.82;100.00;101136.50;5029341;28;20037;-84
2022/10/25 01:49:09;;;;;;;14.07;2.65;;;;;;;12.82;100.00;101142.63;5009547;28;20452;-84
2022/10/25 01:51:36;;;;;;;14.98;2.92;;;;;;;12.81;100.00;101140.94;5008075;28;20033;-86
2022/10/25 01:54:01;;;;;;;16.75;3.17;;;;;;;12.82;100.00;101141.78;5008858;28;20025;-85
2022/10/25 01:56:39;;;;;;;16.40;2.85;;;;;;;12.82;100.00;101147.06;4992112;28;20540;-87
2022/10/25 01:59:04;;;;;;;11.93;2.58;;;;;;;12.82;100.00;101136.50;5008324;28;20038;-84
2022/10/25 02:01:50;;;;;;;12.48;2.88;;;;;;;12.81;100.00;101150.66;5008456;28;20033;-85
2022/10/25 02:04:38;;;;;;;15.82;2.90;;;;;;;12.83;100.00;101148.75;4995118;28;20120;-85
2022/10/25 02:07:09;;;;;;;16.10;2.95;;;;;;;12.80;100.00;101152.44;5016614;28;20026;-84
2022/10/25 02:09:50;;;;;;;11.85;2.55;;;;;;;12.79;100.00;101157.84;5009187;28;20022;-84
2022/10/25 02:12:24;;;;;;;10.93;2.20;;;;;;;12.78;100.00;101156.16;5009207;28;20688;-85
2022/10/25 02:15:07;;;;;;;14.35;2.75;;;;;;;12.79;100.00;101165.75;4991818;28;20041;-84
2022/10/25 02:17:39;;;;;;;13.27;2.60;;;;;;;12.78;100.00;101161.44;5009197;28;20052;-86
2022/10/25 02:20:07;;;;;;;14.30;2.97;;;;;;;12.77;100.00;101165.88;4991162;28;20036;-85
2022/10/25 02:22:33;;;;;;;9.23;3.00;;;;;;;12.77;100.00;101159.75;5008063;28;20029;-85
2022/10/25 02:25:00;;;;;;;13.82;2.85;;;;;;;12.75;100.00;101162.53;5007992;28;20360;-87
2022/10/25 02:27:27;;;;;;;11.93;2.63;;;;;;;12.75;100.00;101159.03;5009010;28;20022;-83
2022/10/25 02:29:54;;;;;;;11.95;2.55;;;;;;;12.74;100.00;101163.47;5009376;28;20026;-84
2022/10/25 02:32:20;;;;;;;14.38;3.20;;;;;;;12.71;100.00;101165.53;4991641;28;20038;-83
2022/10/25 02:34:49;;;;;;;13.98;2.83;;;;;;;12.68;100.00;101156.03;4992405;28;20114;-83
2022/10/25 02:37:15;;;;;;;13.63;2.60;;;;;;;12.68;100.00;101165.75;5008555;28;20056;-84
2022/10/25 02:39:41;;;;;;;11.88;2.63;;;;;;;12.66;100.00;101168.53;5010033;28;20536;-83
2022/10/25 02:42:06;;;;;;;11.07;2.70;;;;;;;12.64;100.00;101164.31;5006957;28;20101;-85
2022/10/25 02:44:32;;;;;;;11.55;2.70;;;;;;;12.63;100.00;101165.28;5008641;28;20110;-84
2022/10/25 02:46:57;;;;;;;14.82;2.90;;;;;;;12.62;100.00;101167.09;5009658;28;20057;-84
2022/10/25 02:49:23;;;;;;;10.65;2.80;;;;;;;12.61;100.00;101175.13;5009481;28;20026;-84
2022/10/25 02:51:48;;;;;;;14.85;3.50;;;;;;;12.60;100.00;101170.81;5009466;28;20135;-84
2022/10/25 02:54:13;;;;;;;12.60;2.70;;;;;;;12.60;100.00;101178.72;5008161;28;20030;-84
2022/10/25 02:56:39;;;;;;;13.13;2.92;;;;;;;12.61;100.00;101178.59;4991539;28;20022;-84
2022/10/25 02:59:04;;;;;;;11.82;2.95;;;;;;;12.59;100.00;101174.41;5008008;28;20030;-84
2022/10/25 03:01:29;;;;;;;9.30;2.63;;;;;;;12.60;100.00;101184.00;5007364;28;20026;-84
2022/10/25 03:03:58;;;;;;;11.02;2.85;;;;;;;12.59;100.00;101171.75;5011387;28;20444;-84
2022/10/25 03:06:23;;;;;;;11.07;2.42;;;;;;;12.56;100.00;101178.13;4994533;28;20402;-84
2022/10/25 03:08:48;;;;;;;10.02;2.72;;;;;;;12.58;100.00;101185.91;5012642;28;20032;-84
2022/10/25 03:11:15;;;;;;;9.50;2.75;;;;;;;12.57;100.00;101190.34;4993352;28;20095;-84
2022/10/25 03:13:41;;;;;;;9.07;2.38;;;;;;;12.55;100.00;101184.34;5012632;28;20025;-84
2022/10/25 03:16:07;;;;;;;8.55;2.50;;;;;;;12.53;100.00;101183.63;5012484;28;20108;-83
2022/10/25 03:18:32;;;;;;;13.18;2.65;;;;;;;12.51;100.00;101185.56;5010378;28;20032;-84
2022/10/25 03:20:59;;;;;;;11.40;2.85;;;;;;;12.49;100.00;101190.94;4995046;28;20026;-83
2022/10/25 03:23:25;;;;;;;12.82;3.13;;;;;;;12.46;100.00;101199.09;5012168;28;20060;-83
2022/10/25 03:25:51;;;;;;;12.55;2.83;;;;;;;12.42;100.00;101191.53;5011800;28;20026;-83
2022/10/25 03:28:17;;;;;;;10.75;2.53;;;;;;;12.42;100.00;101200.31;5011610;28;20029;-83
2022/10/25 03:30:42;;;;;;;8.10;2.53;;;;;;;12.39;100.00;101200.50;4994919;28;20026;-83
2022/10/25 03:33:08;;;;;;;10.13;2.45;;;;;;;12.38;100.00;101216.44;5011005;28;20137;-82
2022/10/25 03:35:33;;;;;;;12.15;2.60;;;;;;;12.34;100.00;101210.56;5006010;28;20038;-82
2022/10/25 03:37:58;;;;;;;11.18;2.95;;;;;;;12.34;100.00;101207.09;4975333;28;20025;-82
2022/10/25 03:40:24;;;;;;;11.00;2.83;;;;;;;12.32;100.00;101222.19;5011281;28;20057;-82
2022/10/25 03:42:49;;;;;;;10.32;2.80;;;;;;;12.31;100.00;101216.06;4995147;28;20127;-83
2022/10/25 03:45:15;;;;;;;10.68;2.78;;;;;;;12.29;100.00;101225.91;5012331;28;20207;-83
2022/10/25 03:47:40;;;;;;;10.60;3.03;;;;;;;12.29;100.00;101228.53;5012360;28;20477;-82
2022/10/25 03:50:06;;;;;;;9.98;2.55;;;;;;;12.26;100.00;101226.13;5012144;28;20501;-82
2022/10/25 03:52:32;;;;;;;11.18;2.72;;;;;;;12.25;100.00;101232.38;4993596;28;20029;-82
2022/10/25 03:54:57;;;;;;;9.82;2.55;;;;;;;12.25;100.00;101229.75;5011283;28;20018;-82
2022/10/25 03:57:23;;;;;;;9.80;2.88;;;;;;;12.26;100.00;101228.78;4994495;28;20060;-83
2022/10/25 03:59:48;;;;;;;9.07;2.97;;;;;;;12.24;100.00;101230.69;5012753;28;20479;-83
2022/10/25 04:02:14;;;;;;;7.68;2.55;;;;;;;12.23;100.00;101240.41;5010020;28;20068;-83
2022/10/25 04:04:39;;;;;;;13.27;3.00;;;;;;;12.23;100.00;101240.41;4990966;28;20026;-83
2022/10/25 04:07:05;;;;;;;8.15;2.70;;;;;;;12.22;100.00;101243.16;4996964;28;20030;-83
2022/10/25 04:09:30;;;;;;;10.85;3.30;;;;;;;12.24;100.00;101241.25;4999129;28;20029;-83
2022/10/25 04:11:56;;;;;;;11.93;2.80;;;;;;;12.24;100.00;101242.09;5011049;28;20022;-83
2022/10/25 04:14:22;;;;;;;10.73;2.90;;;;;;;12.23;100.00;101239.56;5009623;28;20497;-83
2022/10/25 04:16:47;;;;;;;6.93;3.03;;;;;;;12.22;100.00;101237.88;4993732;28;20164;-85
2022/10/25 04:19:12;;;;;;;13.85;3.17;;;;;;;12.19;100.00;101240.75;4986170;28;20018;-85
2022/10/25 04:21:37;;;;;;;9.75;2.92;;;;;;;12.17;100.00;101235.59;4991330;28;20022;-87
2022/10/25 04:24:03;;;;;;;11.90;2.88;;;;;;;12.17;100.00;101245.31;4981197;28;20033;-86
2022/10/25 04:26:29;;;;;;;9.90;3.58;;;;;;;12.15;100.00;101245.41;4992782;28;20324;-86
2022/10/25 04:28:57;;;;;;;9.63;3.33;;;;;;;12.15;100.00;101255.97;4992560;28;20390;-86
2022/10/25 04:31:23;;;;;;;9.65;3.22;;;;;;;12.14;100.00;101251.66;5007665;28;20036;-85
2022/10/25 04:33:53;;;;;;;10.98;3.08;;;;;;;12.12;100.00;101255.34;4973630;28;20117;-84
2022/10/25 04:36:18;;;;;;;12.77;3.30;;;;;;;12.11;100.00;101251.03;4972772;28;20022;-83
2022/10/25 04:38:51;;;;;;;10.48;3.60;;;;;;;12.07;100.00;101257.50;4997162;28;20112;-83
2022/10/25 04:41:17;;;;;;;7.70;3.30;;;;;;;12.08;100.00;101256.53;4991456;28;20079;-84
2022/10/25 04:43:42;;;;;;;12.30;3.30;;;;;;;12.06;100.00;101250.53;4992662;28;20025;-83
2022/10/25 04:46:08;;;;;;;14.65;3.88;;;;;;;12.05;100.00;101254.97;5010334;28;20026;-83
2022/10/25 04:48:36;;;;;;;9.02;3.35;;;;;;;12.05;100.00;101256.78;4991144;28;20029;-86
2022/10/25 04:51:02;;;;;;;9.85;3.53;;;;;;;12.04;100.00;101261.19;4972147;28;20033;-83
2022/10/25 04:53:27;;;;;;;10.88;3.22;;;;;;;12.01;100.00;101264.06;4990279;28;20026;-83
2022/10/25 04:55:57;;;;;;;9.55;3.20;;;;;;;12.01;100.00;101261.44;4973631;28;20073;-83
2022/10/25 04:58:23;;;;;;;11.52;4.13;;;;;;;12.02;100.00;101257.00;4987586;28;20453;-84
2022/10/25 05:00:49;;;;;;;12.13;3.67;;;;;;;12.00;100.00;101253.59;4974285;28;20109;-83
2022/10/25 05:03:14;;;;;;;14.52;3.80;;;;;;;11.99;100.00;101263.31;4992071;28;20325;-84
2022/10/25 05:05:40;;;;;;;10.63;3.50;;;;;;;12.00;100.00;101277.34;5005393;28;20115;-84
2022/10/25 05:08:05;;;;;;;11.60;3.80;;;;;;;11.99;100.00;101270.38;5010492;28;20037;-83
2022/10/25 05:10:30;;;;;;;15.30;3.75;;;;;;;11.97;100.00;101269.66;5010473;28;20019;-84
2022/10/25 05:12:59;;;;;;;10.40;3.55;;;;;;;11.97;100.00;101280.19;5008731;28;20447;-84
2022/10/25 05:15:24;;;;;;;13.27;4.18;;;;;;;11.96;100.00;101279.34;4992252;28;20026;-83
2022/10/25 05:17:49;;;;;;;9.70;3.35;;;;;;;11.96;100.00;101278.50;5029122;28;20111;-84
2022/10/25 05:20:15;;;;;;;11.43;3.45;;;;;;;11.93;100.00;101279.56;5025140;28;20541;-84
2022/10/25 05:22:40;;;;;;;14.15;3.75;;;;;;;11.92;100.00;101285.81;5029099;28;20549;-84
2022/10/25 05:25:06;;;;;;;12.95;3.60;;;;;;;11.92;100.00;101289.28;5028194;28;20040;-83
2022/10/25 05:27:36;;;;;;;8.80;3.22;;;;;;;11.92;100.00;101291.09;5027966;28;20045;-84
2022/10/25 05:30:02;;;;;;;12.55;3.67;;;;;;;11.90;100.00;101293.84;5001334;28;20021;-84
2022/10/25 05:32:28;;;;;;;9.55;3.22;;;;;;;11.89;100.00;101288.66;5014177;28;20112;-83
2022/10/25 05:34:56;;;;;;;11.45;3.55;;;;;;;11.85;100.00;101293.31;5008978;28;20117;-83
2022/10/25 05:37:24;;;;;;;9.75;3.42;;;;;;;11.85;100.00;101293.31;5006750;28;20052;-83
2022/10/25 05:39:50;;;;;;;10.88;3.35;;;;;;;11.86;100.00;101296.81;5021450;28;20021;-84
2022/10/25 05:42:15;;;;;;;13.27;3.97;;;;;;;11.86;100.00;101300.28;5010764;28;20176;-84
2022/10/25 05:44:40;;;;;;;11.32;3.35;;;;;;;11.81;100.00;101305.03;5011397;28;20025;-83
2022/10/25 05:47:06;;;;;;;11.02;3.70;;;;;;;11.81;100.00;101312.97;5027215;28;20036;-83
2022/10/25 05:49:33;;;;;;;15.52;3.88;;;;;;;11.77;100.00;101305.34;5018907;28;20026;-83
2022/10/25 05:51:58;;;;;;;12.90;4.32;;;;;;;11.78;100.00;101309.69;5009041;28;20030;-82
2022/10/25 05:54:23;;;;;;;15.45;4.15;;;;;;;11.78;100.00;101313.19;5008481;28;20026;-83
2022/10/25 05:56:49;;;;;;;12.88;4.45;;;;;;;11.77;100.00;101322.00;4992478;28;20427;-84
2022/10/25 05:59:14;;;;;;;14.30;5.07;;;;;;;11.80;100.00;101326.25;5028225;28;20026;-83
2022/10/25 06:01:43;;;;;;;13.63;4.40;;;;;;;11.80;100.00;101332.38;5010564;28;20029;-83
2022/10/25 06:04:12;;;;;;;14.20;4.77;;;;;;;11.80;100.00;101336.78;5027545;28;20025;-83
2022/10/25 06:06:39;;;;;;;11.80;4.90;;;;;;;11.83;100.00;101326.88;5012135;28;20261;-83
2022/10/25 06:09:05;;;;;;;18.60;5.45;;;;;;;11.85;100.00;101332.88;5011169;28;20056;-83
2022/10/25 06:11:31;;;;;;;13.75;5.65;;;;;;;11.86;100.00;101337.19;5029916;28;20423;-83
2022/10/25 06:13:57;;;;;;;13.95;5.40;;;;;;;11.87;100.00;101341.50;5011035;28;20032;-83
2022/10/25 06:16:23;;;;;;;14.75;5.95;;;;;;;11.90;100.00;101338.66;5011536;28;20045;-83
2022/10/25 06:18:49;;;;;;;12.90;5.78;;;;;;;11.90;100.00;101349.19;5002343;28;20482;-84
2022/10/25 06:21:17;;;;;;;13.95;6.22;;;;;;;11.92;100.00;101347.31;5009264;28;20030;-83
2022/10/25 06:23:43;;;;;;;16.70;6.25;;;;;;;11.93;100.00;101354.25;5029904;28;20025;-84
2022/10/25 06:26:11;;;;;;;14.05;6.28;;;;;;;11.90;100.00;101354.47;5028467;28;20029;-84
2022/10/25 06:28:38;;;;;;;14.38;6.13;;;;;;;11.89;100.00;101360.72;5010269;28;20080;-83
2022/10/25 06:31:17;;;;;;;17.00;6.70;;;;;;;11.92;100.00;101367.56;5009250;28;20092;-83
2022/10/25 06:33:43;;;;;;;13.00;6.35;;;;;;;11.90;100.00;101361.53;5028616;28;20045;-84
2022/10/25 06:36:11;;;;;;;12.90;6.13;;;;;;;11.92;100.00;101363.13;5010744;28;20021;-84
2022/10/25 06:38:37;;;;;;;15.93;6.80;;;;;;;11.90;100.00;101372.94;5030200;28;20030;-84
2022/10/25 06:41:06;;;;;;;18.20;7.07;;;;;;;11.93;100.00;101369.25;5016851;28;20030;-84
2022/10/25 06:43:33;;;;;;;13.57;6.00;;;;;;;11.94;100.00;101370.91;5012552;28;20033;-83
2022/10/25 06:46:07;;;;;;;18.23;7.00;;;;;;;11.95;100.00;101366.50;5013549;28;20022;-83
2022/10/25 06:48:32;;;;;;;19.30;6.57;;;;;;;11.97;100.00;101367.22;5028796;28;20025;-83
2022/10/25 06:51:02;;;;;;;14.38;6.90;;;;;;;11.97;100.00;101385.69;5032620;28;20063;-84
2022/10/25 06:53:28;;;;;;;14.27;6.53;;;;;;;11.95;100.00;101374.41;5015473;28;20026;-84
2022/10/25 06:55:53;;;;;;;15.65;7.10;;;;;;;11.95;100.00;101379.69;5014384;28;20455;-84
2022/10/25 06:58:18;;;;;;;16.42;7.00;;;;;;;11.97;100.00;101383.03;5031620;28;20037;-84
2022/10/25 07:00:44;;;;;;;17.13;7.68;;;;;;;11.97;100.00;101380.41;5015012;28;20044;-83
2022/10/25 07:03:12;;;;;;;14.38;7.55;;;;;;;11.97;100.00;101381.25;5009602;28;20029;-83
2022/10/25 07:05:37;;;;;;;16.20;7.40;;;;;;;11.99;100.00;101392.53;5024779;28;20033;-83
2022/10/25 07:08:03;;;;;;;16.98;7.63;;;;;;;11.98;100.00;101392.66;5003036;28;20028;-86
2022/10/25 07:10:28;;;;;;;13.20;7.15;;;;;;;11.98;100.00;101392.66;5001160;28;20289;-82
2022/10/25 07:12:54;;;;;;;17.42;7.50;;;;;;;12.00;100.00;101403.91;5004731;28;20031;-82
2022/10/25 07:15:20;;;;;;;15.43;7.65;;;;;;;12.04;100.00;101400.16;5018497;28;20030;-82
2022/10/25 07:17:45;;;;;;;16.05;7.90;;;;;;;12.08;100.00;101401.59;5018086;28;20049;-82
2022/10/25 07:20:11;;;;;;;16.85;7.70;;;;;;;12.14;100.00;101403.81;5028070;28;20505;-82
2022/10/25 07:22:36;;;;;;;16.02;7.30;;;;;;;12.19;100.00;101406.94;5024677;28;20041;-86
2022/10/25 07:25:02;;;;;;;16.55;7.90;;;;;;;12.23;100.00;101408.41;5003019;28;20025;-81
2022/10/25 07:27:30;;;;;;;18.10;7.20;;;;;;;12.28;100.00;101422.13;5025501;28;20081;-84
2022/10/25 07:29:56;;;;;;;12.90;6.80;;;;;;;12.32;100.00;101422.72;5001507;28;20044;-83
2022/10/25 07:32:21;;;;;;;17.58;7.47;;;;;;;12.36;100.00;101417.13;5012477;28;20061;-83
2022/10/25 07:34:47;;;;;;;17.10;7.18;;;;;;;12.38;100.00;101427.56;5024797;28;20029;-83
2022/10/25 07:37:12;;;;;;;12.60;7.10;;;;;;;12.40;100.00;101431.78;5015331;28;20056;-83
2022/10/25 07:39:37;;;;;;;15.77;7.70;;;;;;;12.42;100.00;101432.53;4996308;28;20062;-84
2022/10/25 07:42:03;;;;;;;16.75;7.68;;;;;;;12.45;100.00;101429.69;4997698;28;20014;-84
2022/10/25 07:44:28;;;;;;;17.05;7.07;;;;;;;12.48;100.00;101432.09;5002645;28;20029;-84
2022/10/25 07:46:54;;;;;;;16.23;7.00;;;;;;;12.50;100.00;101432.81;5026399;28;20041;-84
2022/10/25 07:49:19;;;;;;;14.45;6.90;;;;;;;12.52;100.00;101430.91;5002608;28;20025;-83
2022/10/25 07:51:45;;;;;;;19.80;7.68;;;;;;;12.52;100.00;101425.63;5020053;28;20029;-84
2022/10/25 07:54:10;;;;;;;13.32;7.32;;;;;;;12.56;100.00;101431.53;5029280;28;20029;-80
2022/10/25 07:56:35;;;;;;;19.63;7.88;;;;;;;12.61;100.00;101439.09;5014057;28;20124;-84
2022/10/25 07:59:01;;;;;;;14.00;7.20;;;;;;;12.65;100.00;101440.56;5013460;28;20021;-84
2022/10/25 08:01:27;;;;;;;11.68;7.07;;;;;;;12.65;100.00;101443.22;5003330;28;20033;-83
2022/10/25 08:03:53;;;;;;;16.38;7.57;;;;;;;12.69;100.00;101436.75;5003127;28;20041;-83
2022/10/25 08:06:21;;;;;;;13.27;7.00;;;;;;;12.70;100.00;101441.91;5022318;28;20027;-83
2022/10/25 08:08:46;;;;;;;16.55;7.60;;;;;;;12.74;100.00;101450.44;5016690;28;20025;-87
2022/10/25 08:11:12;;;;;;;16.55;7.40;;;;;;;12.76;100.00;101451.19;5013795;28;20036;-82
2022/10/25 08:13:38;;;;;;;15.95;7.70;;;;;;;12.78;100.00;101459.81;5008807;28;20037;-85
2022/10/25 08:16:04;;;;;;;17.50;7.15;;;;;;;12.80;100.00;101460.56;5013760;28;20040;-83
2022/10/25 08:18:30;;;;;;;15.93;7.35;;;;;;;12.83;100.00;101453.28;5010158;28;20029;-83
2022/10/25 08:20:56;;;;;;;12.13;7.20;;;;;;;12.87;100.00;101459.19;5009150;28;20038;-84
2022/10/25 08:23:24;;;;;;;17.35;7.10;;;;;;;12.89;100.00;101461.69;5029894;28;20137;-84
2022/10/25 08:25:50;;;;;;;16.33;7.20;;;;;;;12.93;100.00;101460.53;5013123;28;20029;-86
2022/10/25 08:28:16;;;;;;;13.40;6.43;;;;;;;12.96;100.00;101450.56;5011115;28;20688;-84
2022/10/25 08:30:41;;;;;;;14.90;7.25;;;;;;;13.04;100.00;101453.47;5030389;28;20025;-84
2022/10/25 08:33:07;;;;;;;16.10;7.53;;;;;;;13.10;100.00;101457.44;5030364;28;20026;-85
2022/10/25 08:35:33;;;;;;;15.00;6.57;;;;;;;13.17;100.00;101458.69;5030809;28;20029;-88
2022/10/25 08:37:59;;;;;;;15.20;6.75;;;;;;;13.15;100.00;101458.78;5018317;28;20109;-85
2022/10/25 08:40:34;;;;;;;19.70;6.65;;;;;;;13.22;100.00;101453.09;5002066;28;20167;-85
2022/10/25 08:43:18;;;;;;;13.32;6.43;;;;;;;13.30;100.00;101453.34;5007412;28;20565;-84
2022/10/25 08:45:56;;;;;;;13.05;5.80;;;;;;;13.41;100.00;101458.66;5008910;28;20064;-84
2022/10/25 08:48:27;;;;;;;13.38;5.82;;;;;;;13.45;100.00;101463.59;5003620;28;20021;-84
2022/10/25 08:50:58;;;;;;;13.38;5.68;;;;;;;13.50;100.00;101468.53;5002468;28;20080;-84
2022/10/25 08:53:44;;;;;;;12.95;5.32;;;;;;;13.55;100.00;101463.72;5010736;28;20436;-84
2022/10/25 08:56:13;;;;;;;12.73;5.18;;;;;;;13.60;100.00;101466.88;5024614;28;20024;-85
2022/10/25 08:58:47;;;;;;;14.02;5.10;;;;;;;13.67;100.00;101467.25;4996015;28;20029;-84
2022/10/25 09:01:17;;;;;;;21.45;7.18;;;;;;;13.69;100.00;101470.63;4993069;28;20037;-84
2022/10/25 09:03:43;;;;;;;14.13;5.45;;;;;;;13.74;100.00;101469.31;4992650;28;20076;-86
2022/10/25 09:06:17;;;;;;;16.10;5.95;;;;;;;13.78;100.00;101476.03;5029397;28;20029;-84
2022/10/25 09:09:05;;;;;;;17.58;5.65;;;;;;;13.83;100.00;101478.31;5030462;28;20025;-85
2022/10/25 09:11:47;;;;;;;14.95;6.18;;;;;;;13.83;100.00;101483.63;5025311;28;20041;-84
2022/10/25 09:14:44;;;;;;;15.57;5.70;;;;;;;13.81;100.00;101485.53;5012271;28;20051;-87
2022/10/25 09:17:21;;;;;;;13.55;5.25;;;;;;;13.90;100.00;101494.56;5011363;28;20069;-80
2022/10/25 09:19:46;;;;;;;12.95;5.00;;;;;;;13.95;100.00;101487.09;5030772;28;20033;-78
2022/10/25 09:22:28;;;;;;;13.70;5.20;;;;;;;14.03;100.00;101503.25;5029777;28;20033;-81
2022/10/25 09:25:02;;;;;;;10.20;4.40;;;;;;;14.10;100.00;101507.09;5017681;28;20103;-80
2022/10/25 09:27:34;;;;;;;11.43;4.25;;;;;;;14.14;100.00;101508.53;5028211;28;20033;-83
2022/10/25 09:30:08;;;;;;;17.13;5.05;;;;;;;14.15;100.00;101510.22;5012116;28;20516;-82
2022/10/25 09:32:48;;;;;;;11.60;4.45;;;;;;;14.15;100.00;101502.28;5026640;28;20569;-82
2022/10/25 09:35:16;;;;;;;13.70;4.47;;;;;;;14.15;100.00;101510.22;5012844;28;20034;-82
2022/10/25 09:37:52;;;;;;;19.92;4.97;;;;;;;14.11;100.00;101511.44;5012428;28;20547;-82
2022/10/25 09:40:25;;;;;;;11.60;4.25;;;;;;;14.14;100.00;101513.00;5012731;28;20037;-82
2022/10/25 09:42:55;;;;;;;12.27;4.13;;;;;;;14.10;100.00;101515.03;5026378;28;20030;-81
2022/10/25 09:45:27;;;;;;;8.27;3.67;;;;;;;14.09;100.00;101508.06;5010004;28;20030;-82
2022/10/25 09:48:03;;;;;;;12.97;4.10;;;;;;;14.10;100.00;101522.97;4993513;28;20406;-82
2022/10/25 09:50:34;;;;;;;15.77;4.10;;;;;;;14.12;100.00;101518.41;5024295;28;20291;-82
2022/10/25 09:53:10;;;;;;;12.55;4.05;;;;;;;14.16;100.00;101525.13;5011614;28;20536;-81
2022/10/25 09:55:56;;;;;;;12.23;3.95;;;;;;;14.18;100.00;101515.28;5013867;28;20615;-81
2022/10/25 09:58:24;;;;;;;12.55;4.35;;;;;;;14.22;100.00;101518.53;5011309;28;20429;-82
2022/10/25 10:00:51;;;;;;;11.20;3.97;;;;;;;14.24;100.00;101519.25;5001780;28;20021;-83
2022/10/25 10:03:17;;;;;;;13.45;3.70;;;;;;;14.26;100.00;101523.44;4992785;28;20033;-82
2022/10/25 10:05:56;;;;;;;10.13;3.33;;;;;;;14.30;100.00;101521.41;5008321;28;20072;-82
2022/10/25 10:08:23;;;;;;;9.32;3.17;;;;;;;14.29;99.62;101525.84;5027385;28;20362;-82
2022/10/25 10:10:49;;;;;;;10.73;3.13;;;;;;;14.33;99.09;101529.09;5010286;28;20029;-82
2022/10/25 10:13:33;;;;;;;11.10;3.33;;;;;;;14.36;99.04;101534.16;5013817;28;20120;-81
2022/10/25 10:16:04;;;;;;;14.68;3.22;;;;;;;14.37;98.35;101538.47;4998293;28;20482;-82
2022/10/25 10:18:34;;;;;;;14.43;4.03;;;;;;;14.33;98.17;101535.22;5017284;28;20395;-83
2022/10/25 10:21:07;;;;;;;14.27;3.60;;;;;;;14.34;98.13;101536.91;5017380;28;20049;-81
2022/10/25 10:23:43;;;;;;;12.52;3.20;;;;;;;14.35;99.10;101543.06;5000157;28;20034;-84
2022/10/25 10:26:25;;;;;;;11.15;3.60;;;;;;;14.31;99.07;101545.09;5005809;28;20029;-84
2022/10/25 10:29:02;;;;;;;;;;;;;;;14.38;100.00;101542.81;5037042;28;20029;-82
2022/10/25 10:31:36;;;;;;;9.98;3.30;;;;;;;14.35;100.00;101538.59;5036392;28;19909;-82
2022/10/25 10:34:02;;;;;;;11.40;3.60;;;;;;;14.36;98.80;101540.28;5030562;28;20057;-83
2022/10/25 10:36:29;;;;;;;14.45;3.65;;;;;;;14.34;99.68;101546.66;5024627;28;20486;-81
2022/10/25 10:39:18;;;;;;;14.15;3.40;;;;;;;14.38;99.24;101548.94;5029235;28;20120;-81
2022/10/25 10:41:59;;;;;;;9.60;3.45;;;;;;;14.41;98.88;101543.44;5026475;28;20023;-82
2022/10/25 10:44:25;;;;;;;12.90;3.30;;;;;;;14.47;99.46;101547.44;5027429;28;20021;-82
2022/10/25 10:46:53;;;;;;;9.85;3.70;;;;;;;14.51;98.39;101554.16;5009391;28;20026;-82
2022/10/25 10:49:20;;;;;;;12.00;3.47;;;;;;;14.59;98.64;101550.91;5011424;28;20021;-81
2022/10/25 10:51:46;;;;;;;8.90;3.00;;;;;;;14.67;97.37;101544.03;5036126;28;20035;-82
2022/10/25 10:54:31;;;;;;;12.60;3.72;;;;;;;14.86;97.34;101550.50;5035061;28;20025;-81
2022/10/25 10:57:05;;;;;;;7.97;2.90;;;;;;;14.92;96.17;101553.50;5030575;28;20045;-80
2022/10/25 10:59:43;;;;;;;13.95;3.33;;;;;;;15.00;95.83;101540.47;5035157;28;20478;-81
2022/10/25 11:02:17;;;;;;;7.50;3.15;;;;;;;15.07;95.09;101547.91;5035407;28;20029;-82
2022/10/25 11:04:47;;;;;;;10.48;2.83;;;;;;;15.11;93.97;101541.41;5016677;28;20021;-81
2022/10/25 11:07:23;;;;;;;11.07;2.97;;;;;;;15.12;94.34;101549.22;5017332;28;20452;-81
2022/10/25 11:09:48;;;;;;;9.98;2.67;;;;;;;15.12;94.61;101543.06;5035142;28;20022;-81
2022/10/25 11:12:13;;;;;;;9.52;2.95;;;;;;;15.11;93.02;101547.53;5030036;28;20052;-81
2022/10/25 11:14:39;;;;;;;10.93;2.92;;;;;;;15.07;94.20;101550.56;5016751;28;20042;-81
2022/10/25 11:17:12;;;;;;;15.05;3.20;;;;;;;15.14;94.27;101551.75;4996880;28;20054;-81
2022/10/25 11:20:00;;;;;;;11.13;3.00;;;;;;;15.13;95.14;101550.06;5015116;28;20026;-82